Time;durP1;ratioP1;P1;durP2;ratioP2;P2;SDS_P1;SDS_P2;PMS_P1;PMS_P2;Temp;Humidity;BMP_temperature;BMP_pressure;BME280_temperature;BME280_humidity;BME280_pressure;Samples;Min_cycle;Max_cycle;Signal;HPM_P1;HPM_P2
2021/01/16 00:01:45;;;;;;;10.32;3.85;;;;;;;;;;4976028;28;20165;-81
2021/01/16 00:04:12;;;;;;;8.95;3.85;;;;;;;;;;4975961;28;20121;-81
2021/01/16 00:06:40;;;;;;;10.32;4.15;;;;;;;;;;4974938;28;20047;-80
2021/01/16 00:09:08;;;;;;;14.35;5.15;;;;;;;;;;4976090;28;20046;-82
2021/01/16 00:11:37;;;;;;;11.93;3.80;;;;;;;;;;4974375;28;20046;-81
2021/01/16 00:14:03;;;;;;;11.15;5.20;;;;;;;;;;4975973;28;20122;-80
2021/01/16 00:16:30;;;;;;;7.65;3.92;;;;;;;;;;4974113;28;20062;-80
2021/01/16 00:18:57;;;;;;;10.07;4.38;;;;;;;;;;4975041;28;20122;-81
2021/01/16 00:21:26;;;;;;;11.70;4.38;;;;;;;;;;4973771;28;20053;-81
2021/01/16 00:23:52;;;;;;;9.27;4.47;;;;;;;;;;4991078;28;20101;-81
2021/01/16 00:26:19;;;;;;;13.38;4.80;;;;;;;;;;4975156;28;20471;-81
2021/01/16 00:28:46;;;;;;;10.40;4.75;;;;;;;;;;4974868;28;20046;-81
2021/01/16 00:31:13;;;;;;;9.98;4.35;;;;;;;;;;4975441;28;20089;-81
2021/01/16 00:33:40;;;;;;;13.32;5.15;;;;;;;;;;4975706;28;20046;-81
2021/01/16 00:36:07;;;;;;;12.32;4.07;;;;;;;;;;4974438;28;20167;-81
2021/01/16 00:38:38;;;;;;;11.30;4.28;;;;;;;;;;4976192;28;20066;-81
2021/01/16 00:41:05;;;;;;;15.35;5.25;;;;;;;;;;4978164;28;20057;-81
2021/01/16 00:43:33;;;;;;;10.45;4.32;;;;;;;;;;4974631;28;20080;-80
2021/01/16 00:46:00;;;;;;;11.57;5.10;;;;;;;;;;4974664;28;20089;-81
2021/01/16 00:48:28;;;;;;;13.05;4.85;;;;;;;;;;4975884;28;20051;-81
2021/01/16 00:50:55;;;;;;;12.50;5.22;;;;;;;;;;4978664;28;20047;-81
2021/01/16 00:53:28;;;;;;;13.48;5.28;;;;;;;;;;4974400;28;20145;-81
2021/01/16 00:55:54;;;;;;;12.77;5.65;;;;;;;;;;4974537;28;20125;-80
2021/01/16 00:58:21;;;;;;;13.90;5.90;;;;;;;;;;4975059;28;20117;-81
2021/01/16 01:00:49;;;;;;;14.20;4.68;;;;;;;;;;4975015;28;20571;-80
2021/01/16 01:03:18;;;;;;;16.38;5.38;;;;;;;;;;4974933;28;20042;-80
2021/01/16 01:05:45;;;;;;;15.75;5.50;;;;;;;;;;4985073;28;20072;-80
2021/01/16 01:08:12;;;;;;;12.15;5.65;;;;;;;;;;4974477;28;20051;-80
2021/01/16 01:10:44;;;;;;;12.73;5.25;;;;;;;;;;4973673;28;20050;-81
2021/01/16 01:13:16;;;;;;;10.55;4.45;;;;;;;;;;4971413;28;20098;-81
2021/01/16 01:15:43;;;;;;;12.68;5.47;;;;;;;;;;4967024;28;20097;-80
2021/01/16 01:18:10;;;;;;;13.63;5.70;;;;;;;;;;4975073;28;20043;-81
2021/01/16 01:20:37;;;;;;;16.08;5.90;;;;;;;;;;4974658;28;20050;-80
2021/01/16 01:23:04;;;;;;;15.57;5.90;;;;;;;;;;4973688;28;20114;-80
2021/01/16 01:25:31;;;;;;;13.60;5.40;;;;;;;;;;4974969;28;20058;-81
2021/01/16 01:27:58;;;;;;;12.60;5.55;;;;;;;;;;4975654;28;20055;-80
2021/01/16 01:30:26;;;;;;;14.50;5.75;;;;;;;;;;4974848;28;20051;-81
2021/01/16 01:32:53;;;;;;;16.35;6.45;;;;;;;;;;4973490;28;20101;-81
2021/01/16 01:35:29;;;;;;;18.35;6.68;;;;;;;;;;4973762;28;20081;-80
2021/01/16 01:37:56;;;;;;;15.15;6.18;;;;;;;;;;4973643;28;20042;-81
2021/01/16 01:40:37;;;;;;;15.65;6.50;;;;;;;;;;4974105;28;20039;-80
2021/01/16 01:43:05;;;;;;;15.65;6.18;;;;;;;;;;4972960;28;20046;-80
2021/01/16 01:45:32;;;;;;;15.18;6.28;;;;;;;;;;4973351;28;20098;-80
2021/01/16 01:47:58;;;;;;;14.10;5.97;;;;;;;;;;4971355;28;20126;-80
2021/01/16 01:50:25;;;;;;;16.98;6.30;;;;;;;;;;4988509;28;20092;-80
2021/01/16 01:52:53;;;;;;;16.48;6.30;;;;;;;;;;4979601;28;20130;-80
2021/01/16 01:55:24;;;;;;;13.90;5.88;;;;;;;;;;4973040;28;20054;-80
2021/01/16 01:57:52;;;;;;;17.35;6.13;;;;;;;;;;4969009;28;20043;-81
2021/01/16 02:00:27;;;;;;;14.15;6.97;;;;;;;;;;4972622;28;20073;-80
2021/01/16 02:02:59;;;;;;;11.23;5.68;;;;;;;;;;4972803;28;20059;-81
2021/01/16 02:05:26;;;;;;;15.38;6.55;;;;;;;;;;4973827;28;20134;-80
2021/01/16 02:08:27;;;;;;;16.90;5.85;;;;;;;;;;4974222;28;20125;-80
2021/01/16 02:10:54;;;;;;;13.57;6.30;;;;;;;;;;4972814;28;20078;-80
2021/01/16 02:13:21;;;;;;;16.42;6.07;;;;;;;;;;4972198;28;20046;-80
2021/01/16 02:15:51;;;;;;;12.65;5.63;;;;;;;;;;4972985;28;20073;-80
2021/01/16 02:18:36;;;;;;;13.88;5.80;;;;;;;;;;4969435;28;20038;-81
2021/01/16 02:21:04;;;;;;;13.75;5.38;;;;;;;;;;5000037;28;20085;-80
2021/01/16 02:23:34;;;;;;;13.18;5.78;;;;;;;;;;4972976;28;20074;-80
2021/01/16 02:26:08;;;;;;;12.38;5.95;;;;;;;;;;4973715;28;20488;-81
2021/01/16 02:28:35;;;;;;;12.55;5.82;;;;;;;;;;4972689;28;20545;-80
2021/01/16 02:31:04;;;;;;;18.05;6.25;;;;;;;;;;4973303;28;20134;-80
2021/01/16 02:33:33;;;;;;;15.35;7.00;;;;;;;;;;4972132;28;20089;-80
2021/01/16 02:36:03;;;;;;;13.82;6.70;;;;;;;;;;5004730;28;20053;-80
2021/01/16 02:38:48;;;;;;;15.48;7.07;;;;;;;;;;4972343;28;20047;-80
2021/01/16 02:41:36;;;;;;;14.52;6.35;;;;;;;;;;4971808;28;20046;-80
2021/01/16 02:44:18;;;;;;;16.40;6.43;;;;;;;;;;4988018;28;20050;-80
2021/01/16 02:46:49;;;;;;;12.82;6.72;;;;;;;;;;4980442;28;20130;-80
2021/01/16 02:49:20;;;;;;;17.15;6.35;;;;;;;;;;4972594;28;20049;-80
2021/01/16 02:51:57;;;;;;;15.75;6.68;;;;;;;;;;4962865;28;20038;-80
2021/01/16 02:54:25;;;;;;;14.35;6.20;;;;;;;;;;4986447;28;20499;-80
2021/01/16 02:56:52;;;;;;;16.48;6.32;;;;;;;;;;4971798;28;20071;-80
2021/01/16 02:59:41;;;;;;;13.98;6.55;;;;;;;;;;4972024;28;20050;-80
2021/01/16 03:02:09;;;;;;;14.05;6.30;;;;;;;;;;4972805;28;20123;-80
2021/01/16 03:04:37;;;;;;;14.38;7.00;;;;;;;;;;4973446;28;20113;-80
2021/01/16 03:07:18;;;;;;;19.48;7.32;;;;;;;;;;4971982;28;20138;-80
2021/01/16 03:09:45;;;;;;;21.77;8.77;;;;;;;;;;4972698;28;20078;-79
2021/01/16 03:12:15;;;;;;;19.45;7.82;;;;;;;;;;4976773;28;20046;-80
2021/01/16 03:14:49;;;;;;;18.42;7.78;;;;;;;;;;4975759;28;20082;-80
2021/01/16 03:17:18;;;;;;;17.08;7.22;;;;;;;;;;4975898;28;20419;-80
2021/01/16 03:19:46;;;;;;;15.65;6.57;;;;;;;;;;4968386;28;20039;-80
2021/01/16 03:22:17;;;;;;;16.65;7.57;;;;;;;;;;4977075;28;20051;-80
2021/01/16 03:24:44;;;;;;;20.80;8.00;;;;;;;;;;4976782;28;20085;-80
2021/01/16 03:27:11;;;;;;;16.25;7.20;;;;;;;;;;4975568;28;20086;-80
2021/01/16 03:29:38;;;;;;;19.10;8.38;;;;;;;;;;4975753;28;20055;-80
2021/01/16 03:32:07;;;;;;;20.85;8.90;;;;;;;;;;4977200;28;20484;-80
2021/01/16 03:34:34;;;;;;;18.70;7.57;;;;;;;;;;4976286;28;20043;-80
2021/01/16 03:37:01;;;;;;;18.33;7.90;;;;;;;;;;4975565;28;20106;-80
2021/01/16 03:39:28;;;;;;;19.63;8.23;;;;;;;;;;4975982;28;20105;-79
2021/01/16 03:41:55;;;;;;;19.23;8.02;;;;;;;;;;4975069;28;20114;-80
2021/01/16 03:44:21;;;;;;;18.50;8.63;;;;;;;;;;4975779;28;20046;-80
2021/01/16 03:46:52;;;;;;;19.45;8.32;;;;;;;;;;4976847;28;20101;-80
2021/01/16 03:49:19;;;;;;;19.45;7.80;;;;;;;;;;4976585;28;20134;-80
2021/01/16 03:51:46;;;;;;;20.92;7.68;;;;;;;;;;4974881;28;20043;-80
2021/01/16 03:54:13;;;;;;;18.02;8.75;;;;;;;;;;4975466;28;20047;-80
2021/01/16 03:56:42;;;;;;;16.35;7.50;;;;;;;;;;4973163;28;20137;-80
2021/01/16 03:59:09;;;;;;;17.65;6.95;;;;;;;;;;4975912;28;20381;-80
2021/01/16 04:01:36;;;;;;;17.05;7.45;;;;;;;;;;4974391;28;20133;-79
2021/01/16 04:04:03;;;;;;;25.08;7.00;;;;;;;;;;4976069;28;20102;-80
2021/01/16 04:06:30;;;;;;;20.90;7.55;;;;;;;;;;4976029;28;20058;-80
2021/01/16 04:08:57;;;;;;;17.38;7.60;;;;;;;;;;4973870;28;20141;-79
2021/01/16 04:11:23;;;;;;;18.92;7.25;;;;;;;;;;4974015;28;20134;-80
2021/01/16 04:13:52;;;;;;;16.30;7.45;;;;;;;;;;4975127;28;20435;-80
2021/01/16 04:16:19;;;;;;;15.05;7.30;;;;;;;;;;4975183;28;20851;-80
2021/01/16 04:18:46;;;;;;;17.10;6.93;;;;;;;;;;4976405;28;20050;-80
2021/01/16 04:21:12;;;;;;;17.17;6.97;;;;;;;;;;4974266;28;20105;-80
2021/01/16 04:23:40;;;;;;;14.45;6.90;;;;;;;;;;4974893;28;20085;-80
2021/01/16 04:26:07;;;;;;;19.55;7.10;;;;;;;;;;4976132;28;20042;-81
2021/01/16 04:28:34;;;;;;;16.08;6.60;;;;;;;;;;4974875;28;20093;-80
2021/01/16 04:31:08;;;;;;;16.83;7.28;;;;;;;;;;4974936;28;20097;-80
2021/01/16 04:33:35;;;;;;;16.10;5.85;;;;;;;;;;4974990;28;20061;-80
2021/01/16 04:36:10;;;;;;;20.23;7.80;;;;;;;;;;4975717;28;20061;-80
2021/01/16 04:38:37;;;;;;;16.17;6.97;;;;;;;;;;4973082;28;20122;-80
2021/01/16 04:41:07;;;;;;;19.50;6.93;;;;;;;;;;4975790;28;20091;-80
2021/01/16 04:43:34;;;;;;;17.08;6.90;;;;;;;;;;4975675;28;20673;-79
2021/01/16 04:46:05;;;;;;;20.40;8.40;;;;;;;;;;4975961;28;20043;-80
2021/01/16 04:48:36;;;;;;;17.27;7.10;;;;;;;;;;4975440;28;20039;-80
2021/01/16 04:51:05;;;;;;;15.75;6.32;;;;;;;;;;4974578;28;20113;-80
2021/01/16 04:53:37;;;;;;;12.50;6.28;;;;;;;;;;4974145;28;20093;-80
2021/01/16 04:56:05;;;;;;;20.60;7.10;;;;;;;;;;4975784;28;20047;-80
2021/01/16 04:58:36;;;;;;;15.80;7.47;;;;;;;;;;4972034;28;20062;-80
2021/01/16 05:01:07;;;;;;;14.43;6.78;;;;;;;;;;4975033;28;20067;-79
2021/01/16 05:03:36;;;;;;;16.63;6.28;;;;;;;;;;4973984;28;20042;-80
2021/01/16 05:06:22;;;;;;;18.75;7.40;;;;;;;;;;4975554;28;20043;-81
2021/01/16 05:08:49;;;;;;;;;;;;;;;;;;4975156;28;20097;-81
2021/01/16 05:11:15;;;;;;;15.10;6.95;;;;;;;;;;4973612;28;20547;-80
2021/01/16 05:13:46;;;;;;;14.10;6.10;;;;;;;;;;4974784;28;20065;-81
2021/01/16 05:16:13;;;;;;;16.58;6.68;;;;;;;;;;4974170;28;20070;-81
2021/01/16 05:18:43;;;;;;;12.13;5.57;;;;;;;;;;4973947;28;20054;-81
2021/01/16 05:21:14;;;;;;;16.35;6.80;;;;;;;;;;4973831;28;20101;-80
2021/01/16 05:23:45;;;;;;;14.80;6.30;;;;;;;;;;4976116;28;20187;-81
2021/01/16 05:26:12;;;;;;;13.30;5.78;;;;;;;;;;4975738;28;20452;-81
2021/01/16 05:28:50;;;;;;;16.77;6.05;;;;;;;;;;4974621;28;20138;-81
2021/01/16 05:31:16;;;;;;;13.80;5.88;;;;;;;;;;4974452;28;20081;-81
2021/01/16 05:33:43;;;;;;;18.02;6.82;;;;;;;;;;4974879;28;20046;-82
2021/01/16 05:36:14;;;;;;;14.95;6.22;;;;;;;;;;4974294;28;20051;-81
2021/01/16 05:38:42;;;;;;;15.52;6.50;;;;;;;;;;4976332;28;20054;-81
2021/01/16 05:41:12;;;;;;;13.93;6.03;;;;;;;;;;4976203;28;20043;-82
2021/01/16 05:43:40;;;;;;;17.90;6.80;;;;;;;;;;4974963;28;20150;-81
2021/01/16 05:46:10;;;;;;;16.52;7.03;;;;;;;;;;4977948;28;20092;-81
2021/01/16 05:48:37;;;;;;;21.90;13.07;;;;;;;;;;4974300;28;20062;-81
2021/01/16 05:51:04;;;;;;;19.75;9.88;;;;;;;;;;4975046;28;20102;-81
2021/01/16 05:53:32;;;;;;;15.85;6.70;;;;;;;;;;4975209;28;20038;-82
2021/01/16 05:56:00;;;;;;;16.90;8.50;;;;;;;;;;4980885;28;20070;-82
2021/01/16 05:58:34;;;;;;;13.18;6.97;;;;;;;;;;4997585;28;20100;-82
2021/01/16 06:01:08;;;;;;;20.25;6.50;;;;;;;;;;4972527;28;20053;-81
2021/01/16 06:03:36;;;;;;;17.98;6.70;;;;;;;;;;4972915;28;20050;-81
2021/01/16 06:06:09;;;;;;;13.52;6.40;;;;;;;;;;4971428;28;20046;-81
2021/01/16 06:08:36;;;;;;;17.60;6.05;;;;;;;;;;4974274;28;20439;-81
2021/01/16 06:11:07;;;;;;;16.27;7.18;;;;;;;;;;4973379;28;20200;-82
2021/01/16 06:13:46;;;;;;;17.95;6.97;;;;;;;;;;4973194;28;20132;-81
2021/01/16 06:16:17;;;;;;;13.13;6.28;;;;;;;;;;4973589;28;20043;-81
2021/01/16 06:19:16;;;;;;;13.07;6.18;;;;;;;;;;4973725;28;20054;-80
2021/01/16 06:21:43;;;;;;;14.63;6.30;;;;;;;;;;4974139;28;20569;-80
2021/01/16 06:24:13;;;;;;;16.17;6.88;;;;;;;;;;4974667;28;20078;-81
2021/01/16 06:26:41;;;;;;;14.48;6.90;;;;;;;;;;4974095;28;20548;-81
2021/01/16 06:29:14;;;;;;;26.42;11.30;;;;;;;;;;4973117;28;20043;-81
2021/01/16 06:31:49;;;;;;;19.98;7.28;;;;;;;;;;4971694;28;20445;-81
2021/01/16 06:34:28;;;;;;;21.05;7.40;;;;;;;;;;4974222;28;20043;-82
2021/01/16 06:37:07;;;;;;;18.70;7.15;;;;;;;;;;4982219;28;20499;-81
2021/01/16 06:39:36;;;;;;;17.95;6.93;;;;;;;;;;4973566;28;20047;-81
2021/01/16 06:42:05;;;;;;;11.73;5.28;;;;;;;;;;4973536;28;20105;-81
2021/01/16 06:44:37;;;;;;;14.73;4.65;;;;;;;;;;4972442;28;20063;-81
2021/01/16 06:47:07;;;;;;;9.25;4.43;;;;;;;;;;4993218;28;20145;-82
2021/01/16 06:49:35;;;;;;;9.75;3.03;;;;;;;;;;4971266;28;20128;-82
2021/01/16 06:52:15;;;;;;;10.68;3.92;;;;;;;;;;4973122;28;20106;-82
2021/01/16 06:54:48;;;;;;;10.35;3.33;;;;;;;;;;4971915;28;20078;-83
2021/01/16 06:57:15;;;;;;;12.27;3.10;;;;;;;;;;4973600;28;20400;-85
2021/01/16 06:59:46;;;;;;;11.90;3.70;;;;;;;;;;4972693;28;20129;-84
2021/01/16 07:02:15;;;;;;;9.73;3.38;;;;;;;;;;4973698;28;20042;-83
2021/01/16 07:04:50;;;;;;;16.90;3.55;;;;;;;;;;4973759;28;20046;-81
2021/01/16 07:07:39;;;;;;;8.73;3.45;;;;;;;;;;4973655;28;20047;-80
2021/01/16 07:10:30;;;;;;;9.98;3.38;;;;;;;;;;4970212;28;20074;-83
2021/01/16 07:12:59;;;;;;;8.73;3.85;;;;;;;;;;4968014;28;20053;-80
2021/01/16 07:15:33;;;;;;;8.50;3.28;;;;;;;;;;4971656;28;20393;-81
2021/01/16 07:18:04;;;;;;;8.65;3.13;;;;;;;;;;4972360;28;20048;-84
2021/01/16 07:20:59;;;;;;;6.22;3.03;;;;;;;;;;4973047;28;20674;-81
2021/01/16 07:23:28;;;;;;;9.65;4.05;;;;;;;;;;5003731;28;20055;-85
2021/01/16 07:26:00;;;;;;;7.82;3.63;;;;;;;;;;4974358;28;20075;-85
2021/01/16 07:28:27;;;;;;;6.93;3.28;;;;;;;;;;4973750;28;20101;-84
2021/01/16 07:30:54;;;;;;;7.30;3.03;;;;;;;;;;4971881;28;20055;-81
2021/01/16 07:33:21;;;;;;;9.52;3.95;;;;;;;;;;4970918;28;20046;-78
2021/01/16 07:35:58;;;;;;;9.07;3.20;;;;;;;;;;4971248;28;20047;-81
2021/01/16 07:38:28;;;;;;;10.20;3.53;;;;;;;;;;4973935;28;20105;-83
2021/01/16 07:41:02;;;;;;;7.85;3.35;;;;;;;;;;4974892;28;20105;-80
2021/01/16 07:43:36;;;;;;;9.13;3.45;;;;;;;;;;4996797;28;20125;-81
2021/01/16 07:46:10;;;;;;;7.93;3.53;;;;;;;;;;4979404;28;20046;-80
2021/01/16 07:48:47;;;;;;;10.87;3.93;;;;;;;;;;4972013;28;20055;-80
2021/01/16 07:51:27;;;;;;;9.15;3.53;;;;;;;;;;4972702;28;20109;-81
2021/01/16 07:53:56;;;;;;;10.25;3.95;;;;;;;;;;4972422;28;20476;-80
2021/01/16 07:56:23;;;;;;;14.02;4.15;;;;;;;;;;4974784;28;20043;-81
2021/01/16 07:58:56;;;;;;;9.57;4.25;;;;;;;;;;4974710;28;20117;-81
2021/01/16 08:01:31;;;;;;;9.90;4.68;;;;;;;;;;4972374;28;20456;-81
2021/01/16 08:04:06;;;;;;;9.43;3.75;;;;;;;;;;4973775;28;20078;-80
2021/01/16 08:06:41;;;;;;;13.43;3.92;;;;;;;;;;4990024;28;20054;-80
2021/01/16 08:09:22;;;;;;;9.45;3.78;;;;;;;;;;4975046;28;20047;-81
2021/01/16 08:11:52;;;;;;;13.05;4.15;;;;;;;;;;4967220;28;20078;-80
2021/01/16 08:14:20;;;;;;;11.65;3.75;;;;;;;;;;4977357;28;20550;-81
2021/01/16 08:16:54;;;;;;;9.15;3.92;;;;;;;;;;4975260;28;20074;-80
2021/01/16 08:19:24;;;;;;;;;;;;;;;;;;4975559;28;20050;-80
2021/01/16 08:22:00;;;;;;;10.65;3.85;;;;;;;;;;4975512;28;19933;-80
2021/01/16 08:24:30;;;;;;;9.27;3.72;;;;;;;;;;4975243;28;20539;-80
2021/01/16 08:27:05;;;;;;;9.23;3.55;;;;;;;;;;4975575;28;20644;-79
2021/01/16 08:29:32;;;;;;;8.48;3.60;;;;;;;;;;4973775;28;20047;-80
2021/01/16 08:32:11;;;;;;;10.30;3.90;;;;;;;;;;4974047;28;20052;-81
2021/01/16 08:35:04;;;;;;;6.82;3.03;;;;;;;;;;4975848;28;20054;-81
2021/01/16 08:37:35;;;;;;;6.95;3.08;;;;;;;;;;4977154;28;20057;-82
2021/01/16 08:40:10;;;;;;;8.13;4.15;;;;;;;;;;4974013;28;20047;-80
2021/01/16 08:42:53;;;;;;;11.10;4.50;;;;;;;;;;4973423;28;20068;-80
2021/01/16 08:45:21;;;;;;;11.93;3.80;;;;;;;;;;4974901;28;20078;-80
2021/01/16 08:47:58;;;;;;;10.20;3.58;;;;;;;;;;4974154;28;20054;-80
2021/01/16 08:50:31;;;;;;;7.45;4.20;;;;;;;;;;4979640;28;20101;-79
2021/01/16 08:53:03;;;;;;;13.15;3.78;;;;;;;;;;4975436;28;20047;-80
2021/01/16 08:55:30;;;;;;;8.07;3.20;;;;;;;;;;4974299;28;20094;-80
2021/01/16 08:58:11;;;;;;;8.85;3.63;;;;;;;;;;4974226;28;20058;-81
2021/01/16 09:00:38;;;;;;;8.23;4.05;;;;;;;;;;4973963;28;20051;-80
2021/01/16 09:03:06;;;;;;;11.48;3.25;;;;;;;;;;4975114;28;20632;-80
2021/01/16 09:05:33;;;;;;;8.88;3.38;;;;;;;;;;4974177;28;20086;-80
2021/01/16 09:08:01;;;;;;;7.35;3.05;;;;;;;;;;4974302;28;20126;-81
2021/01/16 09:10:28;;;;;;;13.35;4.13;;;;;;;;;;4974259;28;20097;-81
2021/01/16 09:12:55;;;;;;;7.70;3.08;;;;;;;;;;4973387;28;20047;-81
2021/01/16 09:15:25;;;;;;;7.00;2.40;;;;;;;;;;4973566;28;20138;-81
2021/01/16 09:18:19;;;;;;;4.85;2.75;;;;;;;;;;4974924;28;20050;-81
2021/01/16 09:20:45;;;;;;;8.88;3.38;;;;;;;;;;4973172;28;20043;-81
2021/01/16 09:23:27;;;;;;;7.97;3.50;;;;;;;;;;4973564;28;20055;-81
2021/01/16 09:26:06;;;;;;;10.60;2.70;;;;;;;;;;4973576;28;20058;-81
2021/01/16 09:28:43;;;;;;;11.88;3.40;;;;;;;;;;4973549;28;20500;-81
2021/01/16 09:31:24;;;;;;;4.95;2.67;;;;;;;;;;4972934;28;20550;-81
2021/01/16 09:33:59;;;;;;;9.60;2.92;;;;;;;;;;4978766;28;20051;-80
2021/01/16 09:36:44;;;;;;;4.70;2.67;;;;;;;;;;4974543;28;20078;-81
2021/01/16 09:39:20;;;;;;;14.77;2.80;;;;;;;;;;4973506;28;20046;-80
2021/01/16 09:41:51;;;;;;;6.78;2.53;;;;;;;;;;4965778;28;20043;-81
2021/01/16 09:44:40;;;;;;;6.05;3.00;;;;;;;;;;4974158;28;20062;-81
2021/01/16 09:47:34;;;;;;;13.45;2.97;;;;;;;;;;4972346;28;20440;-80
2021/01/16 09:50:01;;;;;;;10.00;2.60;;;;;;;;;;4974321;28;20058;-80
2021/01/16 09:52:28;;;;;;;7.72;2.88;;;;;;;;;;4972728;28;20105;-80
2021/01/16 09:54:56;;;;;;;8.45;3.35;;;;;;;;;;4972504;28;20480;-80
2021/01/16 09:57:32;;;;;;;9.95;2.90;;;;;;;;;;4973318;28;20461;-81
2021/01/16 10:00:12;;;;;;;15.65;3.35;;;;;;;;;;4974641;28;20445;-81
2021/01/16 10:02:43;;;;;;;10.70;3.30;;;;;;;;;;4973683;28;20057;-81
2021/01/16 10:05:13;;;;;;;8.30;2.72;;;;;;;;;;4977416;28;20504;-80
2021/01/16 10:07:42;;;;;;;12.07;3.13;;;;;;;;;;4974167;28;20046;-81
2021/01/16 10:10:18;;;;;;;7.35;2.88;;;;;;;;;;4973663;28;20082;-81
2021/01/16 10:12:48;;;;;;;4.78;2.10;;;;;;;;;;4965766;28;20127;-82
2021/01/16 10:15:19;;;;;;;4.50;2.08;;;;;;;;;;4974333;28;20491;-81
2021/01/16 10:17:52;;;;;;;7.75;2.10;;;;;;;;;;4952984;28;20109;-81
2021/01/16 10:20:19;;;;;;;6.80;2.17;;;;;;;;;;4991918;28;20121;-81
2021/01/16 10:22:53;;;;;;;8.73;2.15;;;;;;;;;;4972501;28;20117;-81
2021/01/16 10:25:39;;;;;;;3.30;2.05;;;;;;;;;;4972556;28;20078;-81
2021/01/16 10:28:06;;;;;;;4.97;1.95;;;;;;;;;;4972479;28;20074;-81
2021/01/16 10:30:34;;;;;;;5.47;2.30;;;;;;;;;;4972587;28;20146;-81
2021/01/16 10:33:18;;;;;;;7.07;2.13;;;;;;;;;;4972176;28;20487;-81
2021/01/16 10:35:49;;;;;;;82.18;5.80;;;;;;;;;;4989300;28;20109;-81
2021/01/16 10:38:35;;;;;;;5.03;1.80;;;;;;;;;;4972592;28;20074;-81
2021/01/16 10:41:03;;;;;;;7.22;2.67;;;;;;;;;;4968170;28;20522;-81
2021/01/16 10:43:32;;;;;;;8.68;2.67;;;;;;;;;;4973490;28;20480;-81
2021/01/16 10:46:13;;;;;;;6.50;3.40;;;;;;;;;;4973591;28;20077;-81
2021/01/16 10:48:41;;;;;;;3.58;1.92;;;;;;;;;;4972065;28;20086;-81
2021/01/16 10:51:11;;;;;;;4.68;2.25;;;;;;;;;;4973463;28;20070;-81
2021/01/16 10:53:40;;;;;;;8.80;2.13;;;;;;;;;;4971782;28;20079;-79
2021/01/16 10:56:14;;;;;;;7.18;3.00;;;;;;;;;;4976995;28;20053;-80
2021/01/16 10:58:41;;;;;;;22.33;8.50;;;;;;;;;;4974435;28;20773;-80
2021/01/16 11:01:09;;;;;;;13.93;7.20;;;;;;;;;;4971935;28;20444;-80
2021/01/16 11:03:36;;;;;;;6.15;3.78;;;;;;;;;;4972303;28;20122;-80
2021/01/16 11:06:10;;;;;;;6.95;4.60;;;;;;;;;;4968133;28;20047;-80
2021/01/16 11:08:40;;;;;;;6.00;3.50;;;;;;;;;;4972932;28;20055;-80
2021/01/16 11:11:25;;;;;;;9.32;4.10;;;;;;;;;;4988018;28;20702;-81
2021/01/16 11:13:53;;;;;;;9.32;3.50;;;;;;;;;;4965000;28;20077;-81
2021/01/16 11:16:22;;;;;;;7.75;3.90;;;;;;;;;;4971957;28;20121;-80
2021/01/16 11:18:51;;;;;;;16.23;6.28;;;;;;;;;;4971595;28;20130;-80
2021/01/16 11:24:10;;;;;;;24.70;10.10;;;;;;;;;;4968898;28;20042;-83
2021/01/16 11:26:59;;;;;;;8.80;4.25;;;;;;;;;;4984996;28;20137;-81
2021/01/16 11:29:40;;;;;;;8.02;3.92;;;;;;;;;;4972924;28;20089;-81
2021/01/16 11:32:22;;;;;;;7.13;4.00;;;;;;;;;;4975646;28;20043;-81
2021/01/16 11:34:55;;;;;;;5.18;2.83;;;;;;;;;;4977424;28;20566;-81
2021/01/16 11:37:43;;;;;;;5.60;2.78;;;;;;;;;;4989225;28;20167;-81
2021/01/16 11:40:21;;;;;;;5.60;2.90;;;;;;;;;;4987823;28;20047;-78
2021/01/16 11:43:05;;;;;;;22.20;12.65;;;;;;;;;;4974830;28;20057;-77
2021/01/16 11:45:32;;;;;;;10.98;5.45;;;;;;;;;;4988164;28;20460;-83
2021/01/16 11:48:00;;;;;;;10.63;3.33;;;;;;;;;;4976511;28;20130;-82
2021/01/16 11:50:30;;;;;;;5.45;2.95;;;;;;;;;;4976582;28;20051;-87
2021/01/16 11:52:57;;;;;;;6.55;2.80;;;;;;;;;;4976768;28;20043;-87
2021/01/16 11:55:24;;;;;;;12.90;4.70;;;;;;;;;;4979861;28;20059;-86
2021/01/16 11:58:00;;;;;;;10.05;4.15;;;;;;;;;;4977530;28;20169;-82
2021/01/16 12:00:36;;;;;;;5.78;2.78;;;;;;;;;;4977405;28;20043;-85
2021/01/16 12:03:33;;;;;;;12.07;5.28;;;;;;;;;;4977965;28;20400;-85
2021/01/16 12:06:27;;;;;;;6.10;3.50;;;;;;;;;;4970728;28;20058;-84
2021/01/16 12:08:55;;;;;;;14.30;4.10;;;;;;;;;;4985817;28;20059;-78
2021/01/16 12:11:23;;;;;;;6.45;2.83;;;;;;;;;;4981035;28;20098;-80
2021/01/16 12:13:56;;;;;;;19.48;10.20;;;;;;;;;;4995477;28;20424;-80
2021/01/16 12:16:34;;;;;;;16.17;7.40;;;;;;;;;;4974220;28;20050;-79
2021/01/16 12:19:02;;;;;;;9.43;5.22;;;;;;;;;;4974354;28;20053;-80
2021/01/16 12:21:30;;;;;;;10.60;5.60;;;;;;;;;;4974376;28;20118;-80
2021/01/16 12:24:00;;;;;;;14.30;3.55;;;;;;;;;;4975135;28;20411;-80
2021/01/16 12:26:28;;;;;;;22.25;9.65;;;;;;;;;;4974768;28;20551;-80
2021/01/16 12:29:06;;;;;;;19.88;5.82;;;;;;;;;;4973720;28;20586;-81
2021/01/16 12:31:33;;;;;;;49.90;21.67;;;;;;;;;;4974521;28;20125;-80
2021/01/16 12:34:07;;;;;;;29.02;13.65;;;;;;;;;;4974240;28;20039;-80
2021/01/16 12:36:44;;;;;;;10.65;5.18;;;;;;;;;;4975375;28;20047;-80
2021/01/16 12:39:12;;;;;;;13.95;4.80;;;;;;;;;;4975354;28;20097;-80
2021/01/16 12:41:38;;;;;;;15.00;4.13;;;;;;;;;;4975198;28;20457;-80
2021/01/16 12:44:05;;;;;;;10.82;5.07;;;;;;;;;;4975293;28;20507;-80
2021/01/16 12:46:45;;;;;;;6.70;3.55;;;;;;;;;;4975326;28;20820;-79
2021/01/16 12:49:23;;;;;;;8.68;3.90;;;;;;;;;;4975992;28;20130;-80
2021/01/16 12:51:59;;;;;;;11.35;3.42;;;;;;;;;;4967867;28;20074;-79
2021/01/16 12:54:28;;;;;;;16.48;6.25;;;;;;;;;;4974312;28;20129;-81
2021/01/16 12:56:56;;;;;;;8.52;3.25;;;;;;;;;;4974242;28;20476;-80
2021/01/16 12:59:23;;;;;;;11.10;3.95;;;;;;;;;;4971914;28;20047;-80
2021/01/16 13:02:02;;;;;;;9.48;3.97;;;;;;;;;;4970897;28;20476;-80
2021/01/16 13:04:29;;;;;;;14.77;6.20;;;;;;;;;;4970651;28;20051;-80
2021/01/16 13:07:02;;;;;;;17.05;7.57;;;;;;;;;;4972600;28;20090;-80
2021/01/16 13:09:35;;;;;;;11.10;4.03;;;;;;;;;;4969047;28;20153;-80
2021/01/16 13:12:01;;;;;;;24.67;10.90;;;;;;;;;;4970142;28;20062;-80
2021/01/16 13:14:47;;;;;;;10.25;4.50;;;;;;;;;;4969009;28;20097;-79
2021/01/16 13:17:13;;;;;;;;;;;;;;;;;;4969239;28;20399;-80
2021/01/16 13:19:42;;;;;;;14.05;6.03;;;;;;;;;;4969732;28;19926;-79
2021/01/16 13:22:14;;;;;;;8.80;3.25;;;;;;;;;;4967955;28;20149;-78
2021/01/16 13:24:42;;;;;;;9.38;3.88;;;;;;;;;;4969162;28;20132;-78
2021/01/16 13:27:19;;;;;;;8.93;3.92;;;;;;;;;;4970451;28;20539;-78
2021/01/16 13:30:00;;;;;;;6.65;3.38;;;;;;;;;;4978084;28;20093;-78
2021/01/16 13:32:27;;;;;;;13.27;4.30;;;;;;;;;;4972921;28;20097;-78
2021/01/16 13:34:56;;;;;;;10.20;4.20;;;;;;;;;;4975164;28;20733;-78
2021/01/16 13:37:24;;;;;;;6.85;3.10;;;;;;;;;;4972890;28;20146;-78
2021/01/16 13:39:51;;;;;;;10.05;5.05;;;;;;;;;;4974143;28;20105;-78
2021/01/16 13:42:21;;;;;;;14.98;6.43;;;;;;;;;;4969506;28;20114;-78
2021/01/16 13:44:58;;;;;;;10.82;5.13;;;;;;;;;;4973937;28;20050;-78
2021/01/16 13:47:26;;;;;;;13.95;5.55;;;;;;;;;;4972291;28;20058;-78
2021/01/16 13:50:07;;;;;;;8.05;4.85;;;;;;;;;;4973767;28;20130;-83
2021/01/16 13:52:53;;;;;;;11.60;5.03;;;;;;;;;;4973075;28;20074;-81
2021/01/16 13:55:44;;;;;;;14.25;4.50;;;;;;;;;;4985525;28;20077;-79
2021/01/16 13:58:18;;;;;;;7.90;4.07;;;;;;;;;;4974297;28;20163;-81
2021/01/16 14:00:58;;;;;;;9.98;4.78;;;;;;;;;;4972333;28;20086;-80
2021/01/16 14:03:25;;;;;;;9.60;4.18;;;;;;;;;;4973112;28;20086;-82
2021/01/16 14:06:03;;;;;;;9.55;4.28;;;;;;;;;;4974288;28;20111;-83
2021/01/16 14:08:32;;;;;;;14.73;5.07;;;;;;;;;;4973801;28;20464;-83
2021/01/16 14:11:02;;;;;;;12.32;4.00;;;;;;;;;;4973312;28;20480;-83
2021/01/16 14:13:45;;;;;;;35.15;4.85;;;;;;;;;;4972435;28;20054;-81
2021/01/16 14:16:14;;;;;;;7.07;3.67;;;;;;;;;;4974069;28;20046;-81
2021/01/16 14:18:46;;;;;;;14.70;4.35;;;;;;;;;;4972474;28;20053;-81
2021/01/16 14:21:19;;;;;;;10.57;3.85;;;;;;;;;;4972890;28;20394;-79
2021/01/16 14:23:48;;;;;;;11.13;4.85;;;;;;;;;;4957938;28;20047;-80
2021/01/16 14:26:30;;;;;;;;;;;;;;;;;;;;;
2021/01/16 14:30:09;;;;;;;9.20;4.15;;;;;;;;;;4960037;28;20051;-81
2021/01/16 14:33:34;;;;;;;10.52;4.80;;;;;;;;;;4963171;28;20046;-80
2021/01/16 14:36:42;;;;;;;12.23;4.50;;;;;;;;;;4971736;28;20081;-82
2021/01/16 14:40:17;;;;;;;;;;;;;;;;;;;;;
2021/01/16 14:43:19;;;;;;;21.42;9.07;;;;;;;;;;4885123;29;20052;-81
2021/01/16 14:52:56;;;;;;;18.20;8.40;;;;;;;;;;4849885;29;20056;-80
2021/01/16 14:55:24;;;;;;;17.85;8.00;;;;;;;;;;4876814;29;20088;-80
2021/01/16 14:57:56;;;;;;;26.88;10.52;;;;;;;;;;4897698;29;20071;-81
2021/01/16 15:00:24;;;;;;;15.23;6.55;;;;;;;;;;4897583;29;20497;-81
2021/01/16 15:03:01;;;;;;;17.58;6.97;;;;;;;;;;4937249;28;20535;-83
2021/01/16 15:05:39;;;;;;;26.95;9.80;;;;;;;;;;4976008;28;20054;-83
2021/01/16 15:08:10;;;;;;;27.15;10.45;;;;;;;;;;4978456;28;20109;-84
2021/01/16 15:10:47;;;;;;;27.13;9.35;;;;;;;;;;4978514;28;20051;-86
2021/01/16 15:13:14;;;;;;;28.92;9.10;;;;;;;;;;4978008;28;20047;-81
2021/01/16 15:15:56;;;;;;;48.95;15.48;;;;;;;;;;4977794;28;20079;-81
2021/01/16 15:18:26;;;;;;;57.33;15.70;;;;;;;;;;4979403;28;20204;-81